createdAt,value
2022-10-13T00:02:37.505Z,34.90
2022-10-13T00:07:40.286Z,35.50
2022-10-13T00:12:43.046Z,37.60
2022-10-13T00:17:45.839Z,37.90
2022-10-13T00:22:48.544Z,39.10
2022-10-13T00:27:51.337Z,43.10
2022-10-13T00:32:54.041Z,43.30
2022-10-13T00:37:56.809Z,44.60
2022-10-13T00:42:59.642Z,43.10
2022-10-13T00:48:02.479Z,47.70
2022-10-13T00:53:05.955Z,47.50
2022-10-13T00:58:10.896Z,43.90
2022-10-13T01:03:13.692Z,43.10
2022-10-13T01:08:16.487Z,42.50
2022-10-13T01:13:36.707Z,47.30
2022-10-13T01:19:16.404Z,44.90
2022-10-13T01:24:56.510Z,39.70
2022-10-13T01:30:08.035Z,41.40
2022-10-13T01:35:16.826Z,40.30
2022-10-13T01:45:31.837Z,37.10
2022-10-13T01:50:34.800Z,38.40
2022-10-13T01:55:37.536Z,37.90
2022-10-13T02:00:47.071Z,35.80
2022-10-13T02:05:58.009Z,37.30
2022-10-13T02:11:17.564Z,37.50
2022-10-13T02:16:23.571Z,38.00
2022-10-13T02:21:26.562Z,40.00
2022-10-13T02:26:31.516Z,40.80
2022-10-13T02:31:34.292Z,37.90
2022-10-13T02:36:40.165Z,39.60
2022-10-13T02:41:42.969Z,40.90
2022-10-13T02:46:45.785Z,40.60
2022-10-13T02:51:49.419Z,36.50
2022-10-13T02:56:52.357Z,34.50
2022-10-13T03:01:56.191Z,38.20
2022-10-13T03:06:58.969Z,36.40
2022-10-13T03:12:02.508Z,33.90
2022-10-13T03:17:07.803Z,36.00
2022-10-13T03:22:15.524Z,33.80
2022-10-13T03:27:18.817Z,38.10
2022-10-13T03:32:21.996Z,36.20
2022-10-13T03:37:25.344Z,32.70
2022-10-13T03:42:28.166Z,32.30
2022-10-13T03:47:31.108Z,34.00
2022-10-13T03:52:33.906Z,35.70
2022-10-13T03:57:36.832Z,31.20
2022-10-13T04:02:39.635Z,31.60
2022-10-13T04:07:42.677Z,31.50
2022-10-13T04:12:45.420Z,33.10
2022-10-13T04:17:48.467Z,29.90
2022-10-13T04:22:52.061Z,29.90
2022-10-13T04:27:54.846Z,31.70
2022-10-13T04:32:57.601Z,28.30
2022-10-13T04:38:00.416Z,26.20
2022-10-13T04:43:03.172Z,28.40
2022-10-13T04:48:06.274Z,25.70
2022-10-13T04:53:09.650Z,24.60
2022-10-13T04:58:12.416Z,26.00
2022-10-13T05:03:15.138Z,24.10
2022-10-13T05:08:17.982Z,25.70
2022-10-13T05:13:21.155Z,26.90
2022-10-13T05:18:24.659Z,24.80
2022-10-13T05:23:27.372Z,22.00
2022-10-13T05:28:30.774Z,23.80
2022-10-13T05:33:33.508Z,25.50
2022-10-13T05:38:36.353Z,25.10
2022-10-13T05:43:40.614Z,23.70
2022-10-13T05:48:43.581Z,22.70
2022-10-13T05:53:54.179Z,24.40
2022-10-13T05:59:03.352Z,26.60
2022-10-13T06:04:13.632Z,25.40
2022-10-13T06:09:16.495Z,24.30
2022-10-13T06:14:19.471Z,25.60
2022-10-13T06:19:22.236Z,27.30
2022-10-13T06:24:24.997Z,25.50
2022-10-13T06:29:27.750Z,24.00
2022-10-13T06:34:30.488Z,25.00
2022-10-13T06:39:33.389Z,26.40
2022-10-13T06:44:36.225Z,24.50
2022-10-13T06:49:39.002Z,25.20
2022-10-13T06:54:41.861Z,24.20
2022-10-13T06:59:44.760Z,27.00
2022-10-13T07:04:47.761Z,24.40
2022-10-13T07:09:50.524Z,23.70
2022-10-13T07:14:53.363Z,25.60
2022-10-13T07:19:57.986Z,26.40
2022-10-13T07:25:01.196Z,24.10
2022-10-13T07:30:05.900Z,22.90
2022-10-13T07:35:11.901Z,22.10
2022-10-13T07:40:14.656Z,21.60
2022-10-13T07:45:17.527Z,22.30
2022-10-13T07:50:20.464Z,24.70
2022-10-13T07:55:23.676Z,25.30
2022-10-13T08:00:26.449Z,23.10
2022-10-13T08:05:29.195Z,20.60
2022-10-13T08:10:31.968Z,22.20
2022-10-13T08:15:34.970Z,22.00
2022-10-13T08:20:43.778Z,20.80
2022-10-13T08:25:46.855Z,20.40
2022-10-13T08:30:50.634Z,19.60
2022-10-13T08:35:53.742Z,19.40
2022-10-13T08:40:56.607Z,18.70
2022-10-13T08:46:00.228Z,16.60
2022-10-13T08:51:05.753Z,16.60
2022-10-13T08:56:25.045Z,16.80
2022-10-13T09:01:36.102Z,17.70
2022-10-13T09:07:10.294Z,16.00
2022-10-13T09:12:13.249Z,15.80
2022-10-13T09:17:18.857Z,14.70
2022-10-13T09:22:28.808Z,12.10
2022-10-13T09:27:51.599Z,10.50
2022-10-13T09:33:11.916Z,10.50
2022-10-13T09:38:22.272Z,8.40
2022-10-13T09:43:34.438Z,7.80
2022-10-13T09:48:37.422Z,8.50
2022-10-13T09:53:40.874Z,7.50
2022-10-13T09:59:04.387Z,7.30
2022-10-13T10:04:11.603Z,5.70
2022-10-13T10:09:33.548Z,6.00
2022-10-13T10:14:39.223Z,6.00
2022-10-13T10:20:03.639Z,6.90
2022-10-13T10:25:18.949Z,6.10
2022-10-13T10:30:21.737Z,6.10
2022-10-13T10:35:49.041Z,4.80
2022-10-13T10:41:18.935Z,4.70
2022-10-13T10:46:30.632Z,4.30
2022-10-13T10:51:36.710Z,3.80
2022-10-13T10:56:44.855Z,4.40
2022-10-13T11:02:51.580Z,4.00
2022-10-13T11:07:55.837Z,3.60
2022-10-13T11:12:58.904Z,3.90
2022-10-13T11:18:01.874Z,4.40
2022-10-13T11:23:04.586Z,3.80
2022-10-13T11:28:22.756Z,3.40
2022-10-13T11:33:40.778Z,3.50
2022-10-13T11:38:45.534Z,3.40
2022-10-13T11:44:14.869Z,3.30
2022-10-13T11:49:52.020Z,3.00
2022-10-13T11:55:01.908Z,3.10
2022-10-13T12:00:05.496Z,2.90
2022-10-13T12:05:23.923Z,2.70
2022-10-13T12:10:34.588Z,3.00
2022-10-13T12:15:41.541Z,3.00
2022-10-13T12:20:44.562Z,3.20
2022-10-13T12:25:49.372Z,2.40
2022-10-13T12:30:57.462Z,2.90
2022-10-13T12:36:20.194Z,2.80
2022-10-13T12:41:30.045Z,3.10
2022-10-13T12:46:41.059Z,2.90
2022-10-13T12:51:46.648Z,3.10
2022-10-13T12:56:53.755Z,2.70
2022-10-13T13:02:04.267Z,3.10
2022-10-13T13:07:27.388Z,2.90
2022-10-13T13:12:30.709Z,3.00
2022-10-13T13:22:57.538Z,3.80
2022-10-13T13:28:03.408Z,3.60
2022-10-13T13:33:06.254Z,3.80
2022-10-13T13:38:09.892Z,3.90
2022-10-13T13:43:12.707Z,4.10
2022-10-13T13:48:15.651Z,4.00
2022-10-13T13:53:18.674Z,4.40
2022-10-13T13:58:21.688Z,3.70
2022-10-13T14:03:24.588Z,3.60
2022-10-13T14:08:31.847Z,4.00
2022-10-13T14:13:34.938Z,3.70
2022-10-13T14:18:37.652Z,3.60
2022-10-13T14:23:45.602Z,3.70
2022-10-13T14:33:54.277Z,3.40
2022-10-13T14:38:58.022Z,3.10
2022-10-13T14:44:02.401Z,3.50
2022-10-13T14:49:05.301Z,3.60
2022-10-13T14:54:08.396Z,3.80
2022-10-13T14:59:11.501Z,3.70
2022-10-13T15:04:14.427Z,3.80
2022-10-13T15:09:17.217Z,3.70
2022-10-13T15:14:20.052Z,3.80
2022-10-13T15:19:22.896Z,3.80
2022-10-13T15:24:25.745Z,3.80
2022-10-13T15:29:28.577Z,4.10
2022-10-13T15:34:31.504Z,3.90
2022-10-13T15:39:34.320Z,3.70
2022-10-13T15:49:59.986Z,4.10
2022-10-13T15:55:02.801Z,4.30
2022-10-13T16:00:07.118Z,4.20
2022-10-13T16:05:12.750Z,4.30
2022-10-13T16:10:15.991Z,4.40
2022-10-13T16:15:19.114Z,4.10
2022-10-13T16:20:22.434Z,3.70
2022-10-13T16:25:26.453Z,4.10
2022-10-13T16:30:30.574Z,4.30
2022-10-13T16:35:34.427Z,3.90
2022-10-13T16:40:39.285Z,4.50
2022-10-13T16:45:59.191Z,4.30
2022-10-13T16:51:07.849Z,4.00
2022-10-13T16:56:13.484Z,5.00
2022-10-13T17:01:23.594Z,4.80
2022-10-13T17:06:29.530Z,5.50
2022-10-13T17:11:34.154Z,6.00
2022-10-13T17:16:57.424Z,7.20
2022-10-13T17:22:02.995Z,8.50
2022-10-13T17:27:05.989Z,9.40
2022-10-13T17:32:08.941Z,10.00
2022-10-13T17:37:11.810Z,10.80
2022-10-13T17:42:14.743Z,11.40
2022-10-13T17:47:17.742Z,11.30
2022-10-13T17:52:20.918Z,11.00
2022-10-13T17:57:24.110Z,12.30
2022-10-13T18:02:26.947Z,13.80
2022-10-13T18:07:30.509Z,14.70
2022-10-13T18:12:34.500Z,15.60
2022-10-13T18:17:46.380Z,14.90
2022-10-13T18:22:49.232Z,16.70
2022-10-13T18:27:52.031Z,17.30
2022-10-13T18:32:54.801Z,17.40
2022-10-13T18:37:57.823Z,16.00
2022-10-13T18:43:00.650Z,16.50
2022-10-13T18:48:04.366Z,17.10
2022-10-13T18:53:07.292Z,16.40
2022-10-13T18:58:11.089Z,17.00
2022-10-13T19:03:13.990Z,17.10
2022-10-13T19:08:16.978Z,17.30
2022-10-13T19:13:19.809Z,17.20
2022-10-13T19:18:22.633Z,16.70
2022-10-13T19:23:25.608Z,15.70
2022-10-13T19:28:28.552Z,16.40
2022-10-13T19:33:34.635Z,17.50
2022-10-13T19:38:37.751Z,17.10
2022-10-13T19:43:40.582Z,16.40
2022-10-13T19:48:44.866Z,17.50
2022-10-13T19:53:47.743Z,17.70
2022-10-13T19:58:51.434Z,17.00
2022-10-13T20:03:54.372Z,17.60
2022-10-13T20:08:59.164Z,19.10
2022-10-13T20:14:02.134Z,19.10
2022-10-13T20:19:04.981Z,17.60
2022-10-13T20:24:14.049Z,19.40
2022-10-13T20:29:16.844Z,19.30
2022-10-13T20:34:19.859Z,19.20
2022-10-13T20:39:22.641Z,19.20
2022-10-13T20:44:26.092Z,19.30
2022-10-13T20:49:29.391Z,19.80
2022-10-13T20:54:32.206Z,18.90
2022-10-13T20:59:35.693Z,20.00
2022-10-13T21:04:38.681Z,20.60
2022-10-13T21:09:42.349Z,19.60
2022-10-13T21:14:45.303Z,20.20
2022-10-13T21:19:48.284Z,19.80
2022-10-13T21:24:52.889Z,19.40
2022-10-13T21:29:55.694Z,19.40
2022-10-13T21:34:58.586Z,20.90
2022-10-13T21:40:01.666Z,20.40
2022-10-13T21:45:05.069Z,20.10
2022-10-13T21:50:08.358Z,20.10
2022-10-13T21:55:11.237Z,20.50
2022-10-13T22:00:14.477Z,19.10
2022-10-13T22:05:17.554Z,20.50
2022-10-13T22:10:20.380Z,21.30
2022-10-13T22:15:23.124Z,19.30
2022-10-13T22:20:26.063Z,18.60
2022-10-13T22:25:28.872Z,19.70
2022-10-13T22:30:31.627Z,21.50
2022-10-13T22:35:35.612Z,20.70
2022-10-13T22:40:38.365Z,20.10
2022-10-13T22:45:51.009Z,21.00
2022-10-13T22:50:53.807Z,21.10
2022-10-13T22:55:57.044Z,20.70
2022-10-13T23:01:12.715Z,20.40
2022-10-13T23:06:17.065Z,20.80
2022-10-13T23:11:21.147Z,22.50
2022-10-13T23:16:25.165Z,21.40
2022-10-13T23:21:29.044Z,19.90
2022-10-13T23:26:33.052Z,21.30
2022-10-13T23:31:36.671Z,20.50
2022-10-13T23:36:41.488Z,19.30
2022-10-13T23:41:44.328Z,19.50
2022-10-13T23:46:47.160Z,19.20
2022-10-13T23:51:49.970Z,20.80
2022-10-13T23:56:52.862Z,19.50
